Time;durP1;ratioP1;P1;durP2;ratioP2;P2;SDS_P1;SDS_P2;PMS_P1;PMS_P2;Temp;Humidity;BMP_temperature;BMP_pressure;BME280_temperature;BME280_humidity;BME280_pressure;Samples;Min_cycle;Max_cycle;Signal;HPM_P1;HPM_P2
2021/08/23 00:00:16;;;;;;;15.32;9.57;;;;;;;26.87;47.91;101813.03;4422728;32;20037;-68
2021/08/23 00:02:42;;;;;;;15.90;9.32;;;;;;;26.86;48.09;101816.44;4424746;32;20037;-68
2021/08/23 00:05:21;;;;;;;15.23;10.18;;;;;;;27.04;48.01;101821.66;4425754;32;20520;-68
2021/08/23 00:08:00;;;;;;;22.75;11.12;;;;;;;26.84;47.89;101822.72;4417718;32;20501;-68
2021/08/23 00:10:39;;;;;;;21.65;12.82;;;;;;;26.78;48.19;101821.94;4416746;32;20060;-68
2021/08/23 00:13:19;;;;;;;20.90;13.27;;;;;;;26.70;48.54;101828.78;4421021;32;20056;-68
2021/08/23 00:15:58;;;;;;;24.52;14.52;;;;;;;26.61;48.59;101826.94;4419438;32;20484;-68
2021/08/23 00:18:37;;;;;;;20.80;13.23;;;;;;;26.46;49.01;101829.28;4414155;32;20103;-68
2021/08/23 00:21:10;;;;;;;19.48;12.82;;;;;;;26.77;48.20;101826.16;4419830;32;20101;-68
2021/08/23 00:23:36;;;;;;;25.95;14.43;;;;;;;26.69;47.70;101830.13;4422248;32;20026;-68
2021/08/23 00:26:03;;;;;;;23.87;15.25;;;;;;;26.55;48.56;101829.03;4421039;32;20076;-68
2021/08/23 00:28:29;;;;;;;25.17;15.18;;;;;;;26.57;48.76;101828.50;4424671;32;20075;-68
2021/08/23 00:30:55;;;;;;;23.25;14.18;;;;;;;26.51;49.11;101828.47;4420154;32;20389;-68
2021/08/23 00:33:21;;;;;;;33.85;16.35;;;;;;;26.59;49.08;101828.75;4422319;32;20138;-68
2021/08/23 00:35:49;;;;;;;28.25;16.45;;;;;;;26.48;48.70;101820.84;4423322;32;20030;-68
2021/08/23 00:38:14;;;;;;;29.12;16.42;;;;;;;26.82;48.29;101824.59;4424170;32;20063;-68
2021/08/23 00:40:40;;;;;;;24.70;15.05;;;;;;;26.46;48.32;101823.50;4421197;32;20072;-68
2021/08/23 00:43:06;;;;;;;28.40;14.95;;;;;;;26.55;48.27;101828.22;4419881;32;20359;-68
2021/08/23 00:45:32;;;;;;;23.25;14.30;;;;;;;26.50;48.69;101829.78;4423101;32;20119;-68
2021/08/23 00:47:59;;;;;;;28.67;14.57;;;;;;;26.35;48.74;101823.47;4425967;32;20078;-68
2021/08/23 00:50:25;;;;;;;24.35;14.15;;;;;;;26.85;48.13;101832.19;4425055;32;20166;-68
2021/08/23 00:52:51;;;;;;;21.73;12.50;;;;;;;26.85;47.78;101832.19;4424627;32;20033;-68
2021/08/23 00:55:17;;;;;;;23.75;13.50;;;;;;;26.89;47.65;101824.03;4422834;32;20095;-68
2021/08/23 00:57:43;;;;;;;22.40;13.05;;;;;;;26.86;47.65;101828.00;4423800;32;20481;-68
2021/08/23 01:00:10;;;;;;;19.92;11.40;;;;;;;26.62;48.36;101825.63;4423478;32;20038;-68
2021/08/23 01:07:59;;;;;;;22.85;11.07;;;;;;;27.19;47.37;101822.16;4009352;31;15016689;-68
2021/08/23 01:10:31;;;;;;;20.08;10.40;;;;;;;27.19;47.37;101822.16;4470082;32;20055;-68
2021/08/23 01:12:58;;;;;;;18.33;10.38;;;;;;;26.68;47.64;101837.19;4467555;32;20045;-68
2021/08/23 01:15:23;;;;;;;16.33;9.65;;;;;;;26.62;47.97;101827.72;4468227;32;20168;-68
2021/08/23 01:17:50;;;;;;;18.85;9.75;;;;;;;26.53;47.63;101834.53;4469162;32;20085;-68
2021/08/23 01:20:17;;;;;;;18.40;9.73;;;;;;;26.71;47.45;101828.25;4466306;32;20400;-68
2021/08/23 01:22:47;;;;;;;18.37;10.05;;;;;;;26.44;47.80;101843.44;4462671;32;20075;-68
2021/08/23 01:25:17;;;;;;;16.85;9.50;;;;;;;26.58;47.40;101838.72;4468527;32;20052;-68
2021/08/23 01:27:58;;;;;;;17.55;10.07;;;;;;;26.49;47.66;101842.66;4466800;32;20055;-68
2021/08/23 01:30:26;;;;;;;14.00;8.95;;;;;;;26.95;46.83;101847.94;4455043;32;20366;-68
2021/08/23 01:32:52;;;;;;;17.50;9.68;;;;;;;26.74;46.95;101847.44;4467868;32;20130;-68
2021/08/23 01:35:18;;;;;;;14.43;9.20;;;;;;;26.38;47.24;101844.75;4467904;32;20114;-68
2021/08/23 01:37:45;;;;;;;21.62;9.93;;;;;;;26.45;46.83;101850.78;4470139;32;20081;-68
2021/08/23 01:40:11;;;;;;;13.43;9.02;;;;;;;26.33;47.54;101854.97;4468753;32;20452;-68
2021/08/23 01:42:38;;;;;;;13.13;8.40;;;;;;;26.36;47.77;101858.91;4464734;32;20171;-68
2021/08/23 01:45:05;;;;;;;16.17;8.55;;;;;;;26.28;47.80;101864.41;4465872;32;20045;-68
2021/08/23 01:47:31;;;;;;;13.00;8.50;;;;;;;26.15;47.23;101857.56;4464398;32;20029;-68
2021/08/23 01:49:56;;;;;;;14.18;7.93;;;;;;;26.16;47.42;101859.12;4466998;32;20191;-68
2021/08/23 01:52:22;;;;;;;15.65;8.20;;;;;;;26.23;47.28;101858.62;4468962;32;20102;-68
2021/08/23 01:54:47;;;;;;;14.43;7.25;;;;;;;26.21;47.86;101859.16;4466995;32;20049;-68
2021/08/23 01:57:16;;;;;;;14.52;8.13;;;;;;;25.99;47.76;101861.97;4467809;32;20395;-68
2021/08/23 01:59:42;;;;;;;13.43;8.15;;;;;;;26.32;47.50;101862.06;4465186;32;20089;-68
2021/08/23 02:02:08;;;;;;;11.18;7.57;;;;;;;26.22;47.67;101871.47;4466879;32;20049;-68
2021/08/23 02:04:33;;;;;;;16.50;8.07;;;;;;;26.15;47.32;101867.00;4466049;32;20037;-68
2021/08/23 02:06:59;;;;;;;16.30;8.60;;;;;;;26.01;47.93;101853.56;4465642;32;20387;-68
2021/08/23 02:09:25;;;;;;;19.23;9.20;;;;;;;26.08;47.88;101863.84;4470157;32;20067;-68
2021/08/23 02:11:50;;;;;;;15.82;8.57;;;;;;;25.87;48.16;101862.41;4462888;32;20497;-68
2021/08/23 02:14:16;;;;;;;18.08;8.85;;;;;;;25.99;47.79;101861.19;4467563;32;20045;-68
2021/08/23 02:16:42;;;;;;;12.60;8.23;;;;;;;25.79;48.05;101870.78;4467572;32;20102;-68
2021/08/23 02:19:09;;;;;;;13.30;8.20;;;;;;;25.78;47.82;101868.41;4458009;32;20370;-68
2021/08/23 02:21:52;;;;;;;15.98;9.43;;;;;;;26.10;47.17;101872.75;4458171;32;20112;-68
2021/08/23 02:24:19;;;;;;;13.62;9.70;;;;;;;26.28;46.52;101875.97;4454078;32;20069;-68
2021/08/23 02:26:46;;;;;;;14.95;11.18;;;;;;;26.15;46.96;101875.66;4459749;32;20041;-68
2021/08/23 02:29:12;;;;;;;17.00;11.93;;;;;;;25.85;47.11;101879.44;4462260;32;20399;-68
2021/08/23 02:31:38;;;;;;;16.87;12.15;;;;;;;25.75;46.88;101873.13;4455585;32;20041;-68
2021/08/23 02:34:05;;;;;;;20.67;12.13;;;;;;;25.86;46.94;101878.16;4459441;32;20108;-68
2021/08/23 02:36:31;;;;;;;22.02;12.70;;;;;;;25.94;46.88;101880.00;4454501;32;20049;-68
2021/08/23 02:38:57;;;;;;;20.75;13.18;;;;;;;25.62;47.43;101881.47;4455005;32;20110;-68
2021/08/23 02:41:23;;;;;;;21.15;14.18;;;;;;;25.84;47.43;101880.75;4452421;32;20341;-68
2021/08/23 02:43:49;;;;;;;20.37;14.20;;;;;;;25.57;47.65;101890.06;4455976;32;20173;-68
2021/08/23 02:46:15;;;;;;;23.77;13.90;;;;;;;25.62;48.20;101884.34;4456344;32;20041;-68
2021/08/23 02:48:41;;;;;;;23.35;14.43;;;;;;;25.87;47.65;101882.59;4455451;32;20040;-68
2021/08/23 02:51:06;;;;;;;26.05;14.48;;;;;;;25.90;47.39;101879.47;4454665;32;20094;-68
2021/08/23 02:53:32;;;;;;;26.20;15.02;;;;;;;25.89;47.50;101883.66;4455237;32;20104;-68
2021/08/23 02:55:58;;;;;;;24.67;14.82;;;;;;;25.84;47.52;101887.31;4456144;32;20065;-68
2021/08/23 02:58:24;;;;;;;26.20;15.27;;;;;;;25.72;47.97;101897.22;4454648;32;20064;-68
2021/08/23 03:00:49;;;;;;;30.88;14.80;;;;;;;25.72;47.92;101884.91;4454668;32;20033;-68
2021/08/23 03:03:15;;;;;;;28.30;15.40;;;;;;;25.69;47.94;101892.50;4452752;32;20100;-68
2021/08/23 03:05:41;;;;;;;29.67;15.25;;;;;;;25.75;48.05;101886.75;4453165;32;20063;-68
2021/08/23 03:08:06;;;;;;;26.67;15.63;;;;;;;25.99;47.81;101887.94;4455380;32;20635;-68
2021/08/23 03:10:32;;;;;;;22.40;14.20;;;;;;;26.01;46.98;101893.19;4453098;32;20139;-68
2021/08/23 03:12:57;;;;;;;24.77;14.77;;;;;;;26.10;47.37;101892.94;4453837;32;20060;-68
2021/08/23 03:15:23;;;;;;;23.62;12.85;;;;;;;25.91;47.73;101897.56;4454133;32;20068;-68
2021/08/23 03:17:49;;;;;;;20.30;13.95;;;;;;;25.78;47.52;101892.28;4453348;32;20132;-68
2021/08/23 03:20:16;;;;;;;26.83;14.02;;;;;;;25.80;47.81;101888.88;4454608;32;20056;-68
2021/08/23 03:22:42;;;;;;;24.95;14.43;;;;;;;25.93;47.74;101889.19;4454199;32;20804;-68
2021/08/23 03:25:08;;;;;;;20.50;13.55;;;;;;;26.04;47.54;101886.34;4454039;32;20521;-68
2021/08/23 03:27:34;;;;;;;20.40;12.50;;;;;;;25.76;47.95;101880.47;4454909;32;20104;-68
2021/08/23 03:29:59;;;;;;;25.88;13.40;;;;;;;26.01;47.87;101885.31;4452888;32;20064;-68
2021/08/23 03:32:25;;;;;;;27.13;13.48;;;;;;;25.97;48.03;101878.19;4453058;32;20021;-68
2021/08/23 03:34:50;;;;;;;24.37;13.05;;;;;;;26.05;47.85;101885.84;4453145;32;20045;-68
2021/08/23 03:37:16;;;;;;;28.02;15.70;;;;;;;26.04;47.55;101872.72;4454502;32;20459;-68
2021/08/23 03:39:42;;;;;;;23.17;14.60;;;;;;;26.09;47.71;101876.94;4453115;32;20021;-68
2021/08/23 03:42:08;;;;;;;24.92;13.85;;;;;;;25.98;48.01;101877.69;4453415;32;20517;-68
2021/08/23 03:44:33;;;;;;;22.10;12.93;;;;;;;25.95;47.91;101884.47;4451835;32;20078;-68
2021/08/23 03:46:59;;;;;;;29.67;15.80;;;;;;;25.87;48.12;101892.06;4455833;32;20102;-68
2021/08/23 03:49:25;;;;;;;22.60;14.07;;;;;;;25.97;47.82;101890.53;4457221;32;20365;-68
2021/08/23 03:51:51;;;;;;;24.98;14.18;;;;;;;26.09;47.59;101891.37;4453516;32;20190;-68
2021/08/23 03:54:16;;;;;;;23.30;13.52;;;;;;;26.10;47.76;101898.72;4456720;32;20351;-68
2021/08/23 03:56:42;;;;;;;23.60;13.13;;;;;;;26.07;47.98;101893.97;4454302;32;20568;-68
2021/08/23 03:59:08;;;;;;;22.58;11.90;;;;;;;25.99;48.02;101893.72;4454524;32;20465;-68
2021/08/23 04:01:33;;;;;;;16.70;10.45;;;;;;;25.83;47.97;101902.25;4452598;32;20069;-68
2021/08/23 04:03:59;;;;;;;17.98;9.65;;;;;;;25.89;48.05;101900.97;4457151;32;20059;-68
2021/08/23 04:06:25;;;;;;;13.48;8.60;;;;;;;25.89;48.41;101900.97;4455236;32;20152;-68
2021/08/23 04:08:51;;;;;;;12.50;6.87;;;;;;;25.92;47.52;101899.16;4451630;32;20049;-68
2021/08/23 04:11:17;;;;;;;17.83;7.70;;;;;;;25.86;47.15;101901.22;4453135;32;20552;-68
2021/08/23 04:13:53;;;;;;;12.65;7.70;;;;;;;25.87;46.97;101894.94;4450644;32;20118;-68
2021/08/23 04:16:26;;;;;;;14.23;7.35;;;;;;;25.84;47.33;101904.63;4457693;32;20055;-68
2021/08/23 04:18:52;;;;;;;13.82;9.18;;;;;;;25.96;47.51;101906.25;4453961;32;20053;-68
2021/08/23 04:21:28;;;;;;;17.52;8.05;;;;;;;26.26;46.95;101912.44;4455791;32;20058;-68
2021/08/23 04:23:59;;;;;;;11.82;7.40;;;;;;;26.18;46.80;101911.34;4454899;32;20461;-68
2021/08/23 04:26:35;;;;;;;12.70;7.50;;;;;;;26.26;46.99;101916.09;4456376;32;20080;-68
2021/08/23 04:29:01;;;;;;;12.25;7.22;;;;;;;26.27;46.86;101914.78;4457411;32;20403;-68
2021/08/23 04:31:37;;;;;;;11.77;7.18;;;;;;;26.27;46.45;101917.69;4452804;32;20100;-68
2021/08/23 04:34:02;;;;;;;12.60;7.05;;;;;;;26.20;46.96;101911.63;4455100;32;20442;-68
2021/08/23 04:36:28;;;;;;;13.18;7.25;;;;;;;26.26;46.90;101913.19;4453394;32;20084;-68
2021/08/23 04:38:54;;;;;;;12.02;6.85;;;;;;;26.15;46.94;101924.72;4450369;32;20028;-68
2021/08/23 04:41:19;;;;;;;13.50;6.97;;;;;;;26.04;47.14;101918.09;4454422;32;20450;-68
2021/08/23 04:43:45;;;;;;;12.00;7.07;;;;;;;26.02;47.12;101920.72;4454082;32;20207;-68
2021/08/23 04:46:11;;;;;;;14.27;7.15;;;;;;;25.85;46.42;101925.59;4453482;32;20085;-68
2021/08/23 04:48:36;;;;;;;12.55;8.23;;;;;;;25.90;46.76;101936.38;4452516;32;20064;-68
2021/08/23 04:51:03;;;;;;;14.15;7.10;;;;;;;25.93;46.89;101936.13;4450727;32;20539;-68
2021/08/23 04:53:30;;;;;;;15.07;8.80;;;;;;;25.77;46.80;101936.06;4453360;32;20090;-68
2021/08/23 04:55:56;;;;;;;12.85;8.15;;;;;;;26.10;46.80;101950.66;4452053;32;20041;-68
2021/08/23 04:58:23;;;;;;;15.80;8.40;;;;;;;26.00;46.84;101938.56;4450407;32;20104;-68
2021/08/23 05:00:49;;;;;;;14.15;8.13;;;;;;;26.03;46.92;101951.16;4438479;32;20106;-68
2021/08/23 05:03:15;;;;;;;13.73;7.50;;;;;;;26.14;46.51;101945.44;4452215;32;20054;-68
2021/08/23 05:05:42;;;;;;;14.15;8.40;;;;;;;26.21;46.37;101950.72;4436986;32;20108;-68
2021/08/23 05:08:08;;;;;;;14.15;8.15;;;;;;;26.24;46.15;101952.56;4453489;32;20113;-68
2021/08/23 05:10:33;;;;;;;17.00;8.77;;;;;;;26.07;46.51;101957.44;4448367;32;20101;-68
2021/08/23 05:12:59;;;;;;;15.23;7.97;;;;;;;26.19;46.61;101948.34;4452887;32;20121;-68
2021/08/23 05:15:25;;;;;;;12.23;8.77;;;;;;;26.20;46.50;101943.38;4452493;32;20098;-68
2021/08/23 05:17:51;;;;;;;18.50;9.63;;;;;;;26.18;46.56;101945.97;4454604;32;20098;-68
2021/08/23 05:20:18;;;;;;;14.77;9.30;;;;;;;26.24;46.30;101953.34;4452032;32;20714;-68
2021/08/23 05:22:44;;;;;;;18.02;9.93;;;;;;;26.31;46.51;101958.63;4450415;32;20032;-68
2021/08/23 05:25:11;;;;;;;20.27;9.90;;;;;;;26.20;46.05;101952.03;4451550;32;20096;-68
2021/08/23 05:27:36;;;;;;;19.58;11.12;;;;;;;26.24;46.39;101961.22;4455387;32;20041;-68
2021/08/23 05:30:04;;;;;;;18.05;10.90;;;;;;;26.21;46.00;101968.03;4454841;32;20167;-68
2021/08/23 05:32:30;;;;;;;16.58;11.15;;;;;;;26.08;46.71;101967.72;4451825;32;20067;-68
2021/08/23 05:34:56;;;;;;;23.30;11.88;;;;;;;26.13;46.37;101973.50;4453492;32;20409;-68
2021/08/23 05:37:22;;;;;;;23.23;11.93;;;;;;;26.05;46.19;101972.41;4453749;32;20045;-68
2021/08/23 05:39:50;;;;;;;22.15;12.37;;;;;;;26.05;46.68;101978.16;4454790;32;20071;-68
2021/08/23 05:42:16;;;;;;;18.85;10.77;;;;;;;26.13;46.41;101984.25;4450238;32;20420;-68
2021/08/23 05:44:41;;;;;;;20.30;11.73;;;;;;;26.08;46.63;101982.13;4454576;32;20037;-68
2021/08/23 05:47:08;;;;;;;21.90;10.30;;;;;;;25.81;47.22;101988.50;4455501;32;20077;-68
2021/08/23 05:49:33;;;;;;;15.05;9.73;;;;;;;25.87;46.60;101984.34;4453679;32;20052;-68
2021/08/23 05:52:00;;;;;;;18.70;10.15;;;;;;;25.84;47.31;101991.16;4449154;32;20111;-68
2021/08/23 05:54:26;;;;;;;17.42;10.00;;;;;;;26.11;46.68;101999.19;4457632;32;20400;-68
2021/08/23 05:56:53;;;;;;;17.00;10.20;;;;;;;25.81;46.97;101997.16;4455617;32;20080;-68
2021/08/23 05:59:19;;;;;;;14.65;9.32;;;;;;;26.03;46.74;101995.22;4457294;32;20064;-68
2021/08/23 06:01:45;;;;;;;15.15;9.55;;;;;;;26.36;45.69;102000.38;4456144;32;20487;-69
2021/08/23 06:04:10;;;;;;;16.40;10.00;;;;;;;26.14;45.99;102003.16;4458014;32;20738;-68
2021/08/23 06:06:38;;;;;;;17.60;9.20;;;;;;;26.14;46.18;102006.81;4442532;32;20092;-68
2021/08/23 06:09:04;;;;;;;15.52;9.38;;;;;;;26.56;45.62;102012.50;4456007;32;20080;-68
2021/08/23 06:11:30;;;;;;;17.33;10.05;;;;;;;26.30;45.82;102016.87;4458039;32;20055;-68
2021/08/23 06:13:55;;;;;;;15.32;9.68;;;;;;;26.35;45.83;102013.22;4451407;32;20021;-68
2021/08/23 06:16:21;;;;;;;15.18;9.70;;;;;;;26.07;46.05;102012.28;4456090;32;20040;-68
2021/08/23 06:18:47;;;;;;;19.85;10.10;;;;;;;26.29;45.72;102010.28;4456394;32;20049;-68
2021/08/23 06:21:12;;;;;;;18.90;11.00;;;;;;;26.50;45.45;102003.03;4450776;32;20071;-68
2021/08/23 06:23:38;;;;;;;17.08;10.82;;;;;;;26.70;45.08;102010.75;4456792;32;20126;-68
2021/08/23 06:26:04;;;;;;;20.12;10.32;;;;;;;26.89;45.04;102011.84;4451544;32;20111;-68
2021/08/23 06:28:30;;;;;;;15.70;10.65;;;;;;;26.76;44.81;102015.25;4458415;32;20074;-68
2021/08/23 06:30:55;;;;;;;16.70;8.68;;;;;;;26.86;44.85;102013.69;4452127;32;20082;-68
2021/08/23 06:33:22;;;;;;;16.17;7.75;;;;;;;27.02;44.40;102010.03;4449859;32;20101;-68
2021/08/23 06:35:47;;;;;;;11.07;7.45;;;;;;;27.02;43.97;102015.00;4449028;32;20037;-69
2021/08/23 06:38:13;;;;;;;11.10;7.30;;;;;;;27.24;43.22;102017.94;4458667;32;20387;-68
2021/08/23 06:40:40;;;;;;;13.62;7.57;;;;;;;27.19;43.51;102024.50;4454758;32;20509;-68
2021/08/23 06:43:06;;;;;;;13.45;8.15;;;;;;;27.49;42.98;102034.25;4451056;32;20112;-68
2021/08/23 06:45:31;;;;;;;15.20;7.55;;;;;;;27.36;42.95;102025.31;4454359;32;20506;-68
2021/08/23 06:47:57;;;;;;;14.60;8.73;;;;;;;27.31;43.23;102031.91;4456857;32;20139;-68
2021/08/23 06:50:23;;;;;;;13.95;8.20;;;;;;;27.41;42.67;102029.50;4450914;32;20033;-68
2021/08/23 06:52:49;;;;;;;17.10;9.23;;;;;;;27.29;43.51;102028.72;4455867;32;20166;-68
2021/08/23 06:55:15;;;;;;;15.55;9.60;;;;;;;27.40;42.74;102039.50;4451437;32;20439;-68
2021/08/23 06:57:40;;;;;;;17.95;10.70;;;;;;;27.22;43.25;102040.78;4451053;32;20435;-68
2021/08/23 07:00:07;;;;;;;12.02;8.70;;;;;;;27.79;42.51;102043.19;4451211;32;20033;-68
2021/08/23 07:02:32;;;;;;;12.55;7.60;;;;;;;27.87;42.08;102045.03;4454287;32;20041;-68
2021/08/23 07:04:58;;;;;;;17.25;8.80;;;;;;;27.92;41.77;102046.34;4438227;32;20042;-68
2021/08/23 07:07:24;;;;;;;18.52;8.98;;;;;;;27.62;42.52;102051.06;4450773;32;20103;-68
2021/08/23 07:09:50;;;;;;;19.92;9.82;;;;;;;27.50;42.33;102052.38;4455381;32;20152;-68
2021/08/23 07:12:15;;;;;;;18.70;9.40;;;;;;;27.47;42.48;102054.25;4455732;32;20442;-69
2021/08/23 07:14:41;;;;;;;17.65;10.35;;;;;;;27.61;42.29;102047.37;4449099;32;20179;-68
2021/08/23 07:17:08;;;;;;;19.15;10.30;;;;;;;27.58;42.18;102050.56;4454351;32;20521;-68
2021/08/23 07:19:34;;;;;;;23.38;11.35;;;;;;;27.59;41.63;102061.59;4451740;32;20072;-69
2021/08/23 07:22:01;;;;;;;22.40;10.82;;;;;;;27.79;41.89;102058.41;4454781;32;20500;-68
2021/08/23 07:24:27;;;;;;;14.43;9.43;;;;;;;28.03;41.50;102057.88;4452702;32;20021;-68
2021/08/23 07:26:53;;;;;;;14.52;9.63;;;;;;;28.08;41.23;102051.31;4451706;32;20484;-68
2021/08/23 07:29:20;;;;;;;18.62;8.98;;;;;;;28.05;41.00;102056.06;4451288;32;20072;-68
2021/08/23 07:31:46;;;;;;;12.45;7.25;;;;;;;27.66;41.13;102052.38;4450928;32;20109;-69
2021/08/23 07:34:12;;;;;;;15.75;7.87;;;;;;;27.91;41.42;102050.53;4450245;32;20062;-69
2021/08/23 07:36:37;;;;;;;13.43;8.40;;;;;;;28.03;40.68;102057.88;4448280;32;20037;-69
2021/08/23 07:39:03;;;;;;;14.45;7.68;;;;;;;27.97;41.25;102055.00;4451788;32;20415;-68
2021/08/23 07:41:29;;;;;;;14.07;6.03;;;;;;;28.35;40.93;102056.22;4450752;32;20099;-68
2021/08/23 07:43:55;;;;;;;10.27;4.12;;;;;;;28.92;39.44;102056.25;4437617;32;20100;-68
2021/08/23 07:46:21;;;;;;;11.10;3.75;;;;;;;28.94;38.78;102066.00;4453685;32;20372;-68
2021/08/23 07:48:47;;;;;;;7.15;3.08;;;;;;;28.95;38.02;102069.66;4452711;32;20372;-68
2021/08/23 07:51:13;;;;;;;8.70;3.65;;;;;;;29.14;37.84;102064.06;4446321;32;20470;-68
2021/08/23 07:53:39;;;;;;;7.20;3.70;;;;;;;29.03;37.84;102073.56;4455095;32;20037;-68
2021/08/23 07:56:05;;;;;;;6.75;3.37;;;;;;;28.83;38.23;102065.25;4451814;32;20028;-68
2021/08/23 07:58:32;;;;;;;8.93;3.67;;;;;;;28.84;37.93;102064.72;4452928;32;20071;-68
2021/08/23 08:00:57;;;;;;;8.70;3.95;;;;;;;28.79;38.29;102071.34;4449431;32;20413;-68
2021/08/23 08:03:23;;;;;;;10.68;4.12;;;;;;;28.23;39.17;102072.06;4449834;32;20433;-69
2021/08/23 08:05:49;;;;;;;13.60;3.72;;;;;;;28.48;38.66;102068.84;4448712;32;20102;-67
2021/08/23 08:08:16;;;;;;;9.98;3.40;;;;;;;28.78;38.71;102069.75;4448833;32;20108;-67
2021/08/23 08:10:41;;;;;;;7.37;3.37;;;;;;;29.15;38.06;102071.41;4446563;32;20357;-70
2021/08/23 08:13:07;;;;;;;10.80;2.78;;;;;;;28.98;37.72;102069.38;4439134;32;20041;-68
2021/08/23 08:15:34;;;;;;;8.98;3.62;;;;;;;29.02;37.47;102078.56;4453242;32;20109;-68
2021/08/23 08:18:00;;;;;;;6.60;2.78;;;;;;;29.38;37.01;102075.72;4452708;32;20095;-68
2021/08/23 08:20:26;;;;;;;9.57;3.08;;;;;;;29.34;37.20;102069.44;4455046;32;20040;-68
2021/08/23 08:22:52;;;;;;;7.75;3.47;;;;;;;29.20;37.21;102082.97;4453702;32;20101;-69
2021/08/23 08:25:18;;;;;;;9.93;3.37;;;;;;;28.97;36.95;102081.50;4451873;32;20064;-68
2021/08/23 08:27:44;;;;;;;11.15;3.80;;;;;;;28.71;37.32;102081.91;4439040;32;20036;-69
2021/08/23 08:30:14;;;;;;;11.07;3.95;;;;;;;28.59;37.91;102083.28;4453328;32;20104;-69
2021/08/23 08:32:39;;;;;;;7.53;3.87;;;;;;;28.67;37.86;102083.50;4450870;32;20505;-69
2021/08/23 08:35:05;;;;;;;9.82;4.25;;;;;;;28.60;37.75;102089.88;4454554;32;20059;-68
2021/08/23 08:37:31;;;;;;;9.77;4.12;;;;;;;28.70;37.32;102094.03;4457783;32;20086;-67
2021/08/23 08:39:57;;;;;;;6.87;4.03;;;;;;;28.49;38.18;102087.00;4450176;32;21436;-68
2021/08/23 08:42:23;;;;;;;9.65;3.35;;;;;;;28.21;38.41;102089.97;4453602;32;20069;-68
2021/08/23 08:44:49;;;;;;;8.32;3.33;;;;;;;28.69;38.13;102098.25;4450682;32;20520;-68
2021/08/23 08:47:17;;;;;;;5.95;3.00;;;;;;;28.23;38.90;102093.12;4449410;32;20132;-68
2021/08/23 08:49:44;;;;;;;8.27;2.35;;;;;;;28.58;37.67;102092.50;4448307;32;20091;-68
2021/08/23 08:52:12;;;;;;;4.93;2.75;;;;;;;28.54;37.00;102103.56;4449938;32;20080;-68
2021/08/23 08:54:39;;;;;;;9.52;2.80;;;;;;;28.24;37.65;102102.56;4449414;32;20095;-68
2021/08/23 08:57:05;;;;;;;5.03;3.00;;;;;;;28.02;38.01;102094.72;4450749;32;20073;-68
2021/08/23 08:59:34;;;;;;;5.12;2.10;;;;;;;27.92;37.98;102110.00;4451648;32;20120;-68
2021/08/23 09:02:00;;;;;;;5.10;2.40;;;;;;;28.01;37.19;102109.75;4451188;32;20089;-68
2021/08/23 09:04:29;;;;;;;8.40;3.33;;;;;;;28.12;37.36;102107.59;4433613;32;20071;-68
2021/08/23 09:06:57;;;;;;;5.75;2.72;;;;;;;28.56;37.13;102110.41;4449384;32;20116;-68
2021/08/23 09:09:25;;;;;;;5.85;2.78;;;;;;;28.69;36.57;102109.84;4453548;32;20049;-69
2021/08/23 09:11:58;;;;;;;3.72;1.87;;;;;;;28.40;36.15;102116.22;4446707;32;20033;-68
2021/08/23 09:14:24;;;;;;;2.75;1.80;;;;;;;28.52;35.27;102120.69;4448368;32;20482;-68
2021/08/23 09:16:51;;;;;;;8.57;2.15;;;;;;;28.79;35.11;102125.59;4448403;32;20034;-68
2021/08/23 09:19:26;;;;;;;11.60;2.22;;;;;;;29.05;35.00;102126.03;4451461;32;20186;-68
2021/08/23 09:22:04;;;;;;;5.68;2.45;;;;;;;29.45;34.21;102130.28;4451775;32;20347;-68
2021/08/23 09:24:32;;;;;;;11.82;2.60;;;;;;;29.65;33.83;102135.69;4448722;32;20068;-69
2021/08/23 09:27:09;;;;;;;4.50;1.98;;;;;;;29.88;33.04;102134.94;4453038;32;20040;-69
2021/08/23 09:32:27;;;;;;;3.60;1.90;;;;;;;31.02;31.20;102139.31;4002363;31;15016884;-69
2021/08/23 09:34:53;;;;;;;4.12;1.60;;;;;;;31.02;31.20;102139.31;4464125;32;20164;-69
2021/08/23 09:37:23;;;;;;;20.12;2.60;;;;;;;30.78;31.00;102140.16;4457884;32;20037;-69
2021/08/23 09:39:49;;;;;;;5.55;2.00;;;;;;;31.37;30.68;102142.00;4460526;32;20529;-69
2021/08/23 09:42:20;;;;;;;2.85;1.65;;;;;;;31.67;29.33;102148.41;4462034;32;20045;-69
2021/08/23 09:44:45;;;;;;;4.12;1.83;;;;;;;32.50;28.46;102144.06;4465383;32;20082;-69
2021/08/23 09:47:11;;;;;;;14.15;2.30;;;;;;;32.92;27.37;102154.63;4468240;32;20021;-69
2021/08/23 09:49:44;;;;;;;5.28;1.90;;;;;;;32.83;27.61;102149.22;4465980;32;20350;-68
2021/08/23 09:52:22;;;;;;;5.22;2.20;;;;;;;32.86;27.23;102148.13;4463847;32;20115;-69
2021/08/23 09:55:04;;;;;;;4.28;1.80;;;;;;;32.46;27.82;102146.53;4462845;32;20504;-68
2021/08/23 09:57:34;;;;;;;7.68;2.45;;;;;;;32.11;28.06;102150.59;4462341;32;20747;-69
2021/08/23 10:00:03;;;;;;;6.47;2.20;;;;;;;32.03;28.74;102149.66;4448541;32;20757;-69
2021/08/23 10:02:29;;;;;;;7.28;2.25;;;;;;;31.98;28.86;102149.78;4462225;32;20021;-69
2021/08/23 10:04:58;;;;;;;5.35;2.10;;;;;;;31.11;29.14;102149.75;4463863;32;20055;-70
2021/08/23 10:07:27;;;;;;;8.65;3.00;;;;;;;31.17;29.40;102153.38;4463361;32;20030;-69
2021/08/23 10:09:54;;;;;;;6.35;2.50;;;;;;;31.28;29.58;102145.31;4462695;32;20503;-68
2021/08/23 10:12:20;;;;;;;3.20;2.17;;;;;;;31.20;29.57;102149.38;4463297;32;20126;-69
2021/08/23 10:14:47;;;;;;;5.65;2.10;;;;;;;31.05;29.55;102151.94;4462138;32;20060;-68
2021/08/23 10:17:13;;;;;;;3.40;2.08;;;;;;;30.74;29.25;102147.59;4452489;32;20044;-68
2021/08/23 10:19:40;;;;;;;4.22;2.00;;;;;;;30.68;29.63;102155.56;4464660;32;20277;-68
2021/08/23 10:22:06;;;;;;;7.87;2.08;;;;;;;30.72;29.61;102151.03;4463233;32;20103;-70
2021/08/23 10:24:33;;;;;;;6.00;2.20;;;;;;;30.67;29.95;102153.97;4463407;32;20157;-68
2021/08/23 10:26:59;;;;;;;5.62;2.37;;;;;;;30.66;30.15;102155.31;4466939;32;20068;-68
2021/08/23 10:29:36;;;;;;;8.35;2.40;;;;;;;30.88;30.02;102149.25;4466498;32;20067;-68
2021/08/23 10:32:07;;;;;;;4.45;2.22;;;;;;;31.37;29.17;102147.03;4458451;32;20045;-69
2021/08/23 10:34:33;;;;;;;5.97;2.35;;;;;;;32.60;27.54;102142.25;4456465;32;20164;-69
2021/08/23 10:36:59;;;;;;;3.42;2.28;;;;;;;32.80;26.97;102149.53;4459819;32;20082;-68
2021/08/23 10:39:27;;;;;;;6.30;2.33;;;;;;;33.76;26.00;102148.44;4463330;32;20145;-69
2021/08/23 10:41:56;;;;;;;4.32;2.12;;;;;;;33.90;26.04;102153.66;4459835;32;20116;-70
2021/08/23 10:49:43;;;;;;;6.30;1.70;;;;;;;33.55;26.31;102150.53;3994836;31;15016294;-69
2021/08/23 10:52:11;;;;;;;8.68;2.00;;;;;;;33.55;26.31;102150.53;4446682;32;20076;-68
2021/08/23 10:54:40;;;;;;;5.18;1.80;;;;;;;32.55;27.01;102149.78;4446648;32;20085;-69
2021/08/23 10:57:09;;;;;;;6.43;2.37;;;;;;;32.34;27.38;102148.09;4448561;32;20037;-69
2021/08/23 10:59:55;;;;;;;6.25;1.60;;;;;;;32.75;27.22;102147.53;4448111;32;20077;-69
2021/08/23 11:02:31;;;;;;;2.50;1.25;;;;;;;33.20;26.26;102148.16;4449091;32;20063;-68
2021/08/23 11:07:37;;;;;;;3.08;1.52;;;;;;;35.85;23.16;102159.94;3982710;32;15023388;-68
2021/08/23 11:17:55;;;;;;;8.60;1.92;;;;;;;37.07;22.00;102161.38;3984148;32;15024962;-68
2021/08/23 11:20:24;;;;;;;5.93;2.28;;;;;;;37.07;22.00;102161.38;4434328;32;20518;-69
2021/08/23 11:25:30;;;;;;;12.18;2.25;;;;;;;39.45;19.52;102168.03;3982249;32;15028351;-69
2021/08/23 11:27:57;;;;;;;4.10;1.98;;;;;;;39.45;19.52;102168.03;4433625;32;20076;-69
2021/08/23 11:30:32;;;;;;;2.58;1.60;;;;;;;39.16;19.82;102164.09;4436335;32;20037;-69
2021/08/23 11:32:58;;;;;;;4.20;1.62;;;;;;;39.46;19.41;102163.72;4434096;32;20388;-69
2021/08/23 11:35:24;;;;;;;2.58;1.50;;;;;;;38.29;20.29;102160.88;4436917;32;20073;-69
2021/08/23 11:38:00;;;;;;;3.53;1.83;;;;;;;37.97;20.70;102158.75;4437093;32;20056;-68
2021/08/23 11:40:27;;;;;;;5.75;1.90;;;;;;;38.82;19.69;102155.25;4434411;32;20065;-68
2021/08/23 11:42:56;;;;;;;3.65;2.00;;;;;;;38.91;19.29;102160.44;4433880;32;20385;-69